sensor_id;sensor_type;location;lat;lon;timestamp;P1;durP1;ratioP1;P2;durP2;ratioP2
76121;SDS011;70471;53.200;6.080;2023-10-08T00:01:32;0.17;;;0.00;;
76121;SDS011;70471;53.200;6.080;2023-10-08T00:06:24;0.63;;;0.00;;
76121;SDS011;70471;53.200;6.080;2023-10-08T00:11:17;1.13;;;0.25;;
76121;SDS011;70471;53.200;6.080;2023-10-08T00:16:13;0.70;;;0.10;;
76121;SDS011;70471;53.200;6.080;2023-10-08T00:21:08;0.22;;;0.10;;
76121;SDS011;70471;53.200;6.080;2023-10-08T00:26:09;0.10;;;0.03;;
76121;SDS011;70471;53.200;6.080;2023-10-08T00:31:02;0.50;;;0.10;;
76121;SDS011;70471;53.200;6.080;2023-10-08T00:36:02;0.68;;;0.10;;
76121;SDS011;70471;53.200;6.080;2023-10-08T00:41:08;0.73;;;0.10;;
76121;SDS011;70471;53.200;6.080;2023-10-08T00:46:04;0.30;;;0.20;;
76121;SDS011;70471;53.200;6.080;2023-10-08T00:51:11;0.82;;;0.10;;
76121;SDS011;70471;53.200;6.080;2023-10-08T00:56:17;1.45;;;0.40;;
76121;SDS011;70471;53.200;6.080;2023-10-08T01:01:09;0.08;;;0.00;;
76121;SDS011;70471;53.200;6.080;2023-10-08T01:06:02;0.30;;;0.10;;
76121;SDS011;70471;53.200;6.080;2023-10-08T01:10:54;0.30;;;0.10;;
76121;SDS011;70471;53.200;6.080;2023-10-08T01:15:52;0.35;;;0.08;;
76121;SDS011;70471;53.200;6.080;2023-10-08T01:20:45;1.38;;;0.10;;
76121;SDS011;70471;53.200;6.080;2023-10-08T01:25:47;0.20;;;0.10;;
76121;SDS011;70471;53.200;6.080;2023-10-08T01:30:42;0.10;;;0.00;;
76121;SDS011;70471;53.200;6.080;2023-10-08T01:35:36;5.95;;;0.28;;
76121;SDS011;70471;53.200;6.080;2023-10-08T01:40:28;0.68;;;0.00;;
76121;SDS011;70471;53.200;6.080;2023-10-08T01:45:22;0.38;;;0.10;;
76121;SDS011;70471;53.200;6.080;2023-10-08T01:50:15;0.38;;;0.10;;
76121;SDS011;70471;53.200;6.080;2023-10-08T01:55:11;0.10;;;0.00;;
76121;SDS011;70471;53.200;6.080;2023-10-08T02:00:07;0.00;;;0.00;;
76121;SDS011;70471;53.200;6.080;2023-10-08T02:05:01;0.10;;;0.00;;
76121;SDS011;70471;53.200;6.080;2023-10-08T02:09:54;0.65;;;0.00;;
76121;SDS011;70471;53.200;6.080;2023-10-08T02:14:45;0.15;;;0.03;;
76121;SDS011;70471;53.200;6.080;2023-10-08T02:19:39;0.28;;;0.00;;
76121;SDS011;70471;53.200;6.080;2023-10-08T02:24:33;0.93;;;0.10;;
76121;SDS011;70471;53.200;6.080;2023-10-08T02:29:25;0.08;;;0.00;;
76121;SDS011;70471;53.200;6.080;2023-10-08T02:34:17;0.30;;;0.10;;
76121;SDS011;70471;53.200;6.080;2023-10-08T02:39:09;0.03;;;0.00;;
76121;SDS011;70471;53.200;6.080;2023-10-08T02:44:12;0.25;;;0.00;;
76121;SDS011;70471;53.200;6.080;2023-10-08T02:49:04;0.00;;;0.00;;
76121;SDS011;70471;53.200;6.080;2023-10-08T02:53:56;0.90;;;0.10;;
76121;SDS011;70471;53.200;6.080;2023-10-08T02:58:48;0.08;;;0.00;;
76121;SDS011;70471;53.200;6.080;2023-10-08T03:03:41;1.42;;;0.00;;
76121;SDS011;70471;53.200;6.080;2023-10-08T03:08:33;0.13;;;0.10;;
76121;SDS011;70471;53.200;6.080;2023-10-08T03:13:26;0.60;;;0.00;;
76121;SDS011;70471;53.200;6.080;2023-10-08T03:18:18;0.08;;;0.00;;
76121;SDS011;70471;53.200;6.080;2023-10-08T03:23:13;0.28;;;0.08;;
76121;SDS011;70471;53.200;6.080;2023-10-08T03:28:13;0.20;;;0.10;;
76121;SDS011;70471;53.200;6.080;2023-10-08T03:33:06;0.90;;;0.10;;
76121;SDS011;70471;53.200;6.080;2023-10-08T03:38:00;0.00;;;0.00;;
76121;SDS011;70471;53.200;6.080;2023-10-08T03:43:11;0.32;;;0.10;;
76121;SDS011;70471;53.200;6.080;2023-10-08T03:48:10;0.50;;;0.20;;
76121;SDS011;70471;53.200;6.080;2023-10-08T03:53:05;0.20;;;0.10;;
76121;SDS011;70471;53.200;6.080;2023-10-08T03:58:01;0.10;;;0.00;;
76121;SDS011;70471;53.200;6.080;2023-10-08T04:02:55;0.60;;;0.22;;
76121;SDS011;70471;53.200;6.080;2023-10-08T04:07:51;0.93;;;0.00;;
76121;SDS011;70471;53.200;6.080;2023-10-08T04:13:09;0.10;;;0.00;;
76121;SDS011;70471;53.200;6.080;2023-10-08T04:18:07;0.35;;;0.10;;
76121;SDS011;70471;53.200;6.080;2023-10-08T04:23:00;0.57;;;0.17;;
76121;SDS011;70471;53.200;6.080;2023-10-08T04:27:52;0.45;;;0.00;;
76121;SDS011;70471;53.200;6.080;2023-10-08T04:32:44;0.65;;;0.10;;
76121;SDS011;70471;53.200;6.080;2023-10-08T04:37:37;0.20;;;0.00;;
76121;SDS011;70471;53.200;6.080;2023-10-08T04:42:30;0.32;;;0.10;;
76121;SDS011;70471;53.200;6.080;2023-10-08T04:47:22;0.57;;;0.15;;
76121;SDS011;70471;53.200;6.080;2023-10-08T04:52:25;1.23;;;0.20;;
76121;SDS011;70471;53.200;6.080;2023-10-08T04:57:19;0.30;;;0.10;;
76121;SDS011;70471;53.200;6.080;2023-10-08T05:07:10;2.83;;;0.50;;
76121;SDS011;70471;53.200;6.080;2023-10-08T05:12:11;2.40;;;0.30;;
76121;SDS011;70471;53.200;6.080;2023-10-08T05:17:21;1.63;;;0.30;;
76121;SDS011;70471;53.200;6.080;2023-10-08T05:22:15;1.42;;;0.20;;
76121;SDS011;70471;53.200;6.080;2023-10-08T05:27:33;0.30;;;0.30;;
76121;SDS011;70471;53.200;6.080;2023-10-08T05:32:49;1.27;;;0.38;;
76121;SDS011;70471;53.200;6.080;2023-10-08T05:38:02;1.08;;;0.10;;
76121;SDS011;70471;53.200;6.080;2023-10-08T05:43:03;1.95;;;0.60;;
76121;SDS011;70471;53.200;6.080;2023-10-08T05:48:14;3.20;;;0.50;;
76121;SDS011;70471;53.200;6.080;2023-10-08T05:53:05;1.98;;;0.30;;
76121;SDS011;70471;53.200;6.080;2023-10-08T05:58:09;1.15;;;0.22;;
76121;SDS011;70471;53.200;6.080;2023-10-08T06:03:26;1.70;;;0.30;;
76121;SDS011;70471;53.200;6.080;2023-10-08T06:08:29;1.52;;;0.30;;
76121;SDS011;70471;53.200;6.080;2023-10-08T06:13:39;0.22;;;0.17;;
76121;SDS011;70471;53.200;6.080;2023-10-08T06:18:46;2.28;;;0.47;;
76121;SDS011;70471;53.200;6.080;2023-10-08T06:23:40;2.25;;;0.32;;
76121;SDS011;70471;53.200;6.080;2023-10-08T06:28:33;0.98;;;0.30;;
76121;SDS011;70471;53.200;6.080;2023-10-08T06:33:25;0.40;;;0.20;;
76121;SDS011;70471;53.200;6.080;2023-10-08T06:38:22;0.60;;;0.40;;
76121;SDS011;70471;53.200;6.080;2023-10-08T06:43:14;0.80;;;0.20;;
76121;SDS011;70471;53.200;6.080;2023-10-08T06:48:06;2.35;;;0.50;;
76121;SDS011;70471;53.200;6.080;2023-10-08T06:52:59;0.63;;;0.30;;
76121;SDS011;70471;53.200;6.080;2023-10-08T06:57:57;0.10;;;0.10;;
76121;SDS011;70471;53.200;6.080;2023-10-08T07:02:50;0.55;;;0.47;;
76121;SDS011;70471;53.200;6.080;2023-10-08T07:07:44;0.70;;;0.30;;
76121;SDS011;70471;53.200;6.080;2023-10-08T07:12:35;0.55;;;0.22;;
76121;SDS011;70471;53.200;6.080;2023-10-08T07:17:28;1.20;;;0.30;;
76121;SDS011;70471;53.200;6.080;2023-10-08T07:22:30;0.10;;;0.10;;
76121;SDS011;70471;53.200;6.080;2023-10-08T07:27:22;0.25;;;0.10;;
76121;SDS011;70471;53.200;6.080;2023-10-08T07:32:19;1.20;;;0.20;;
76121;SDS011;70471;53.200;6.080;2023-10-08T07:42:05;1.42;;;0.17;;
76121;SDS011;70471;53.200;6.080;2023-10-08T07:46:58;0.20;;;0.10;;
76121;SDS011;70471;53.200;6.080;2023-10-08T07:51:49;0.30;;;0.20;;
76121;SDS011;70471;53.200;6.080;2023-10-08T07:56:43;0.28;;;0.15;;
76121;SDS011;70471;53.200;6.080;2023-10-08T08:01:34;0.28;;;0.08;;
76121;SDS011;70471;53.200;6.080;2023-10-08T08:06:27;0.80;;;0.30;;
76121;SDS011;70471;53.200;6.080;2023-10-08T08:11:21;0.10;;;0.10;;
76121;SDS011;70471;53.200;6.080;2023-10-08T08:16:17;1.05;;;0.35;;
76121;SDS011;70471;53.200;6.080;2023-10-08T08:21:11;0.52;;;0.20;;
76121;SDS011;70471;53.200;6.080;2023-10-08T08:26:05;0.45;;;0.10;;
76121;SDS011;70471;53.200;6.080;2023-10-08T08:31:02;2.10;;;0.20;;
76121;SDS011;70471;53.200;6.080;2023-10-08T08:36:00;0.25;;;0.10;;
76121;SDS011;70471;53.200;6.080;2023-10-08T08:41:01;0.40;;;0.30;;
76121;SDS011;70471;53.200;6.080;2023-10-08T08:45:56;0.38;;;0.10;;
76121;SDS011;70471;53.200;6.080;2023-10-08T08:50:47;1.27;;;0.40;;
76121;SDS011;70471;53.200;6.080;2023-10-08T08:55:41;1.25;;;0.30;;
76121;SDS011;70471;53.200;6.080;2023-10-08T09:00:33;1.55;;;0.22;;
76121;SDS011;70471;53.200;6.080;2023-10-08T09:05:27;2.03;;;0.47;;
76121;SDS011;70471;53.200;6.080;2023-10-08T09:10:25;0.45;;;0.20;;
76121;SDS011;70471;53.200;6.080;2023-10-08T09:15:19;0.88;;;0.22;;
76121;SDS011;70471;53.200;6.080;2023-10-08T09:20:12;1.25;;;0.10;;
76121;SDS011;70471;53.200;6.080;2023-10-08T09:25:04;1.50;;;0.25;;
76121;SDS011;70471;53.200;6.080;2023-10-08T09:29:57;0.57;;;0.10;;
76121;SDS011;70471;53.200;6.080;2023-10-08T09:34:50;1.58;;;0.22;;
76121;SDS011;70471;53.200;6.080;2023-10-08T09:39:43;0.90;;;0.20;;
76121;SDS011;70471;53.200;6.080;2023-10-08T09:44:36;1.33;;;0.10;;
76121;SDS011;70471;53.200;6.080;2023-10-08T09:49:30;0.80;;;0.30;;
76121;SDS011;70471;53.200;6.080;2023-10-08T09:54:26;1.85;;;0.80;;
76121;SDS011;70471;53.200;6.080;2023-10-08T09:59:22;1.48;;;0.43;;
76121;SDS011;70471;53.200;6.080;2023-10-08T10:04:22;0.73;;;0.25;;
76121;SDS011;70471;53.200;6.080;2023-10-08T10:09:19;0.85;;;0.50;;
76121;SDS011;70471;53.200;6.080;2023-10-08T10:14:13;0.47;;;0.25;;
76121;SDS011;70471;53.200;6.080;2023-10-08T10:19:07;1.00;;;0.20;;
76121;SDS011;70471;53.200;6.080;2023-10-08T10:24:12;0.57;;;0.20;;
76121;SDS011;70471;53.200;6.080;2023-10-08T10:29:21;0.98;;;0.47;;
76121;SDS011;70471;53.200;6.080;2023-10-08T10:34:16;1.85;;;0.60;;
76121;SDS011;70471;53.200;6.080;2023-10-08T10:39:10;0.50;;;0.30;;
76121;SDS011;70471;53.200;6.080;2023-10-08T10:44:06;1.52;;;0.40;;
76121;SDS011;70471;53.200;6.080;2023-10-08T10:54:06;0.20;;;0.10;;
76121;SDS011;70471;53.200;6.080;2023-10-08T10:59:00;1.23;;;0.30;;
76121;SDS011;70471;53.200;6.080;2023-10-08T11:04:06;1.10;;;0.30;;
76121;SDS011;70471;53.200;6.080;2023-10-08T11:09:05;0.77;;;0.32;;
76121;SDS011;70471;53.200;6.080;2023-10-08T11:14:04;0.60;;;0.22;;
76121;SDS011;70471;53.200;6.080;2023-10-08T11:18:56;0.55;;;0.20;;
76121;SDS011;70471;53.200;6.080;2023-10-08T11:23:52;0.95;;;0.13;;
76121;SDS011;70471;53.200;6.080;2023-10-08T11:28:45;0.47;;;0.30;;
76121;SDS011;70471;53.200;6.080;2023-10-08T11:33:38;1.00;;;0.30;;
76121;SDS011;70471;53.200;6.080;2023-10-08T11:38:37;1.02;;;0.20;;
76121;SDS011;70471;53.200;6.080;2023-10-08T11:43:30;0.40;;;0.17;;
76121;SDS011;70471;53.200;6.080;2023-10-08T11:48:25;1.75;;;0.50;;
76121;SDS011;70471;53.200;6.080;2023-10-08T11:53:18;1.35;;;0.28;;
76121;SDS011;70471;53.200;6.080;2023-10-08T11:58:10;0.38;;;0.20;;
76121;SDS011;70471;53.200;6.080;2023-10-08T12:03:03;0.63;;;0.20;;
76121;SDS011;70471;53.200;6.080;2023-10-08T12:07:55;1.70;;;0.47;;
76121;SDS011;70471;53.200;6.080;2023-10-08T12:12:48;1.48;;;0.20;;
76121;SDS011;70471;53.200;6.080;2023-10-08T12:17:42;0.85;;;0.50;;
76121;SDS011;70471;53.200;6.080;2023-10-08T12:27:27;0.90;;;0.43;;
76121;SDS011;70471;53.200;6.080;2023-10-08T12:37:16;1.60;;;0.35;;
76121;SDS011;70471;53.200;6.080;2023-10-08T12:42:09;2.92;;;0.55;;
76121;SDS011;70471;53.200;6.080;2023-10-08T12:47:02;2.17;;;0.40;;
76121;SDS011;70471;53.200;6.080;2023-10-08T12:51:56;1.67;;;0.32;;
76121;SDS011;70471;53.200;6.080;2023-10-08T12:56:49;1.20;;;0.38;;
76121;SDS011;70471;53.200;6.080;2023-10-08T13:01:46;0.95;;;0.35;;
76121;SDS011;70471;53.200;6.080;2023-10-08T13:06:41;1.27;;;0.45;;
76121;SDS011;70471;53.200;6.080;2023-10-08T13:11:35;1.05;;;0.40;;
76121;SDS011;70471;53.200;6.080;2023-10-08T13:16:29;2.00;;;0.40;;
76121;SDS011;70471;53.200;6.080;2023-10-08T13:21:22;0.50;;;0.20;;
76121;SDS011;70471;53.200;6.080;2023-10-08T13:26:15;1.88;;;0.43;;
76121;SDS011;70471;53.200;6.080;2023-10-08T13:31:07;1.38;;;0.57;;
76121;SDS011;70471;53.200;6.080;2023-10-08T13:36:00;0.40;;;0.20;;
76121;SDS011;70471;53.200;6.080;2023-10-08T13:50:44;1.33;;;0.38;;
76121;SDS011;70471;53.200;6.080;2023-10-08T14:00:29;1.60;;;0.30;;
76121;SDS011;70471;53.200;6.080;2023-10-08T14:05:26;1.23;;;0.30;;
76121;SDS011;70471;53.200;6.080;2023-10-08T14:10:19;1.13;;;0.10;;
76121;SDS011;70471;53.200;6.080;2023-10-08T14:15:19;1.05;;;0.30;;
76121;SDS011;70471;53.200;6.080;2023-10-08T14:20:14;0.52;;;0.20;;
76121;SDS011;70471;53.200;6.080;2023-10-08T14:25:11;1.17;;;0.20;;
76121;SDS011;70471;53.200;6.080;2023-10-08T14:30:05;0.95;;;0.17;;
76121;SDS011;70471;53.200;6.080;2023-10-08T14:35:05;1.52;;;0.30;;
76121;SDS011;70471;53.200;6.080;2023-10-08T14:40:16;0.75;;;0.25;;
76121;SDS011;70471;53.200;6.080;2023-10-08T14:45:25;1.75;;;0.20;;
76121;SDS011;70471;53.200;6.080;2023-10-08T14:50:18;0.95;;;0.20;;
76121;SDS011;70471;53.200;6.080;2023-10-08T14:55:09;1.10;;;0.40;;
76121;SDS011;70471;53.200;6.080;2023-10-08T15:00:02;0.32;;;0.10;;
76121;SDS011;70471;53.200;6.080;2023-10-08T15:04:55;0.17;;;0.17;;
76121;SDS011;70471;53.200;6.080;2023-10-08T15:09:47;1.63;;;0.25;;
76121;SDS011;70471;53.200;6.080;2023-10-08T15:14:39;0.88;;;0.30;;
76121;SDS011;70471;53.200;6.080;2023-10-08T15:19:33;0.50;;;0.10;;
76121;SDS011;70471;53.200;6.080;2023-10-08T15:24:25;0.77;;;0.30;;
76121;SDS011;70471;53.200;6.080;2023-10-08T15:34:08;0.52;;;0.20;;
76121;SDS011;70471;53.200;6.080;2023-10-08T15:39:03;0.73;;;0.20;;
76121;SDS011;70471;53.200;6.080;2023-10-08T15:43:55;1.02;;;0.20;;
76121;SDS011;70471;53.200;6.080;2023-10-08T15:48:48;0.30;;;0.10;;
76121;SDS011;70471;53.200;6.080;2023-10-08T15:58:32;0.32;;;0.13;;
76121;SDS011;70471;53.200;6.080;2023-10-08T16:03:24;0.80;;;0.20;;
76121;SDS011;70471;53.200;6.080;2023-10-08T16:13:06;0.52;;;0.20;;
76121;SDS011;70471;53.200;6.080;2023-10-08T16:18:00;1.73;;;0.20;;
76121;SDS011;70471;53.200;6.080;2023-10-08T16:22:53;0.77;;;0.28;;
76121;SDS011;70471;53.200;6.080;2023-10-08T16:27:45;1.05;;;0.30;;
76121;SDS011;70471;53.200;6.080;2023-10-08T16:32:39;0.75;;;0.25;;
76121;SDS011;70471;53.200;6.080;2023-10-08T16:37:32;0.60;;;0.20;;
76121;SDS011;70471;53.200;6.080;2023-10-08T16:42:24;0.43;;;0.20;;
76121;SDS011;70471;53.200;6.080;2023-10-08T16:47:16;0.22;;;0.13;;
76121;SDS011;70471;53.200;6.080;2023-10-08T16:52:08;1.05;;;0.40;;
76121;SDS011;70471;53.200;6.080;2023-10-08T16:57:01;0.20;;;0.10;;
76121;SDS011;70471;53.200;6.080;2023-10-08T17:01:54;0.63;;;0.38;;
76121;SDS011;70471;53.200;6.080;2023-10-08T17:11:37;1.52;;;0.25;;
76121;SDS011;70471;53.200;6.080;2023-10-08T17:16:31;1.63;;;0.40;;
76121;SDS011;70471;53.200;6.080;2023-10-08T17:21:23;1.70;;;0.35;;
76121;SDS011;70471;53.200;6.080;2023-10-08T17:26:14;2.90;;;0.28;;
76121;SDS011;70471;53.200;6.080;2023-10-08T17:31:06;0.45;;;0.22;;
76121;SDS011;70471;53.200;6.080;2023-10-08T17:36:02;0.65;;;0.38;;
76121;SDS011;70471;53.200;6.080;2023-10-08T17:40:54;0.55;;;0.20;;
76121;SDS011;70471;53.200;6.080;2023-10-08T17:50:37;0.60;;;0.30;;
76121;SDS011;70471;53.200;6.080;2023-10-08T17:55:30;1.05;;;0.10;;
76121;SDS011;70471;53.200;6.080;2023-10-08T18:00:21;1.02;;;0.30;;
76121;SDS011;70471;53.200;6.080;2023-10-08T18:05:14;0.60;;;0.43;;
76121;SDS011;70471;53.200;6.080;2023-10-08T18:10:07;1.17;;;0.45;;
76121;SDS011;70471;53.200;6.080;2023-10-08T18:15:04;0.85;;;0.25;;
76121;SDS011;70471;53.200;6.080;2023-10-08T18:19:59;0.75;;;0.30;;
76121;SDS011;70471;53.200;6.080;2023-10-08T18:29:42;0.82;;;0.40;;
76121;SDS011;70471;53.200;6.080;2023-10-08T18:34:35;0.55;;;0.20;;
76121;SDS011;70471;53.200;6.080;2023-10-08T18:39:26;1.52;;;0.50;;
76121;SDS011;70471;53.200;6.080;2023-10-08T18:44:18;0.70;;;0.30;;
76121;SDS011;70471;53.200;6.080;2023-10-08T18:54:05;1.83;;;0.30;;
76121;SDS011;70471;53.200;6.080;2023-10-08T18:58:57;1.13;;;0.20;;
76121;SDS011;70471;53.200;6.080;2023-10-08T19:08:39;0.38;;;0.20;;
76121;SDS011;70471;53.200;6.080;2023-10-08T19:13:32;1.58;;;0.40;;
76121;SDS011;70471;53.200;6.080;2023-10-08T19:18:24;3.03;;;0.60;;
76121;SDS011;70471;53.200;6.080;2023-10-08T19:23:17;1.08;;;0.38;;
76121;SDS011;70471;53.200;6.080;2023-10-08T19:28:08;1.38;;;0.28;;
76121;SDS011;70471;53.200;6.080;2023-10-08T19:33:06;0.85;;;0.43;;
76121;SDS011;70471;53.200;6.080;2023-10-08T19:38:00;1.42;;;0.50;;
76121;SDS011;70471;53.200;6.080;2023-10-08T19:42:53;0.38;;;0.20;;
76121;SDS011;70471;53.200;6.080;2023-10-08T19:47:44;0.50;;;0.28;;
76121;SDS011;70471;53.200;6.080;2023-10-08T19:52:37;0.52;;;0.30;;
76121;SDS011;70471;53.200;6.080;2023-10-08T19:57:32;0.32;;;0.22;;
76121;SDS011;70471;53.200;6.080;2023-10-08T20:02:23;1.05;;;0.28;;
76121;SDS011;70471;53.200;6.080;2023-10-08T20:07:15;1.08;;;0.63;;
76121;SDS011;70471;53.200;6.080;2023-10-08T20:12:08;1.38;;;0.60;;
76121;SDS011;70471;53.200;6.080;2023-10-08T20:16:59;0.43;;;0.22;;
76121;SDS011;70471;53.200;6.080;2023-10-08T20:21:58;0.90;;;0.45;;
76121;SDS011;70471;53.200;6.080;2023-10-08T20:31:42;0.90;;;0.30;;
76121;SDS011;70471;53.200;6.080;2023-10-08T20:36:35;0.90;;;0.20;;
76121;SDS011;70471;53.200;6.080;2023-10-08T20:41:26;0.52;;;0.40;;
76121;SDS011;70471;53.200;6.080;2023-10-08T20:46:22;1.73;;;0.40;;
76121;SDS011;70471;53.200;6.080;2023-10-08T20:51:15;0.95;;;0.38;;
76121;SDS011;70471;53.200;6.080;2023-10-08T20:56:08;0.65;;;0.32;;
76121;SDS011;70471;53.200;6.080;2023-10-08T21:05:51;1.25;;;0.30;;
76121;SDS011;70471;53.200;6.080;2023-10-08T21:15:37;0.52;;;0.30;;
76121;SDS011;70471;53.200;6.080;2023-10-08T21:20:30;0.52;;;0.30;;
76121;SDS011;70471;53.200;6.080;2023-10-08T21:25:22;0.52;;;0.32;;
76121;SDS011;70471;53.200;6.080;2023-10-08T21:30:15;0.30;;;0.10;;
76121;SDS011;70471;53.200;6.080;2023-10-08T21:35:08;0.20;;;0.10;;
76121;SDS011;70471;53.200;6.080;2023-10-08T21:40:01;0.60;;;0.30;;
76121;SDS011;70471;53.200;6.080;2023-10-08T21:44:54;1.00;;;0.30;;
76121;SDS011;70471;53.200;6.080;2023-10-08T21:49:47;0.60;;;0.30;;
76121;SDS011;70471;53.200;6.080;2023-10-08T21:54:39;1.15;;;0.43;;
76121;SDS011;70471;53.200;6.080;2023-10-08T22:04:22;0.40;;;0.30;;
76121;SDS011;70471;53.200;6.080;2023-10-08T22:09:17;1.02;;;0.63;;
76121;SDS011;70471;53.200;6.080;2023-10-08T22:14:08;2.22;;;0.90;;
76121;SDS011;70471;53.200;6.080;2023-10-08T22:19:02;2.33;;;0.95;;
76121;SDS011;70471;53.200;6.080;2023-10-08T22:23:55;2.42;;;1.20;;
76121;SDS011;70471;53.200;6.080;2023-10-08T22:28:48;2.45;;;0.93;;
76121;SDS011;70471;53.200;6.080;2023-10-08T22:33:43;2.75;;;1.00;;
76121;SDS011;70471;53.200;6.080;2023-10-08T22:38:38;2.92;;;1.13;;
76121;SDS011;70471;53.200;6.080;2023-10-08T22:43:30;2.65;;;1.17;;
76121;SDS011;70471;53.200;6.080;2023-10-08T22:48:27;2.65;;;0.88;;
76121;SDS011;70471;53.200;6.080;2023-10-08T22:53:25;2.22;;;1.42;;
76121;SDS011;70471;53.200;6.080;2023-10-08T22:58:18;3.25;;;1.30;;
76121;SDS011;70471;53.200;6.080;2023-10-08T23:03:10;1.58;;;0.98;;
76121;SDS011;70471;53.200;6.080;2023-10-08T23:08:03;4.13;;;1.20;;
76121;SDS011;70471;53.200;6.080;2023-10-08T23:12:56;1.95;;;1.10;;
76121;SDS011;70471;53.200;6.080;2023-10-08T23:17:49;4.45;;;1.30;;
76121;SDS011;70471;53.200;6.080;2023-10-08T23:22:40;2.45;;;1.00;;
76121;SDS011;70471;53.200;6.080;2023-10-08T23:27:35;2.70;;;1.10;;
76121;SDS011;70471;53.200;6.080;2023-10-08T23:32:27;2.80;;;1.40;;
76121;SDS011;70471;53.200;6.080;2023-10-08T23:37:19;3.55;;;1.42;;
76121;SDS011;70471;53.200;6.080;2023-10-08T23:42:12;2.42;;;1.48;;
76121;SDS011;70471;53.200;6.080;2023-10-08T23:47:23;3.08;;;1.05;;
76121;SDS011;70471;53.200;6.080;2023-10-08T23:52:16;3.35;;;1.38;;
76121;SDS011;70471;53.200;6.080;2023-10-08T23:57:12;3.60;;;1.08;;
